Time;durP1;ratioP1;P1;durP2;ratioP2;P2;SDS_P1;SDS_P2;PMS_P1;PMS_P2;Temp;Humidity;BMP_temperature;BMP_pressure;BME280_temperature;BME280_humidity;BME280_pressure;Samples;Min_cycle;Max_cycle;Signal;HPM_P1;HPM_P2
2022/08/05 00:01:43;;;;;;;;;;;;;;;26.77;60.10;101260.97;5014815;28;20007;-85
2022/08/05 00:04:09;;;;;;;;;;;;;;;26.78;59.93;101260.09;5032636;28;20390;-85
2022/08/05 00:06:34;;;;;;;;;;;;;;;26.76;59.79;101251.16;5032413;28;19917;-85
2022/08/05 00:09:00;;;;;;;;;;;;;;;26.77;59.81;101258.28;5023809;28;19914;-85
2022/08/05 00:11:25;;;;;;;;;;;;;;;26.75;60.13;101253.84;5015857;28;19917;-85
2022/08/05 00:13:51;;;;;;;;;;;;;;;26.75;59.93;101245.81;5008853;28;19974;-86
2022/08/05 00:16:16;;;;;;;;;;;;;;;26.74;60.16;101247.59;5026073;28;19913;-84
2022/08/05 00:18:43;;;;;;;;;;;;;;;26.76;60.10;101250.28;5024636;28;19943;-86
2022/08/05 00:21:09;;;;;;;;;;;;;;;26.74;60.03;101242.25;5018638;28;20077;-86
2022/08/05 00:23:35;;;;;;;;;;;;;;;26.75;59.72;101251.16;5028097;28;20006;-85
2022/08/05 00:26:00;;;;;;;;;;;;;;;26.73;59.99;101240.47;5024401;28;19917;-83
2022/08/05 00:28:26;;;;;;;;;;;;;;;26.76;59.77;101247.59;5044676;28;19943;-83
2022/08/05 00:30:51;;;;;;;;;;;;;;;26.73;59.71;101247.59;5041207;28;20071;-84
2022/08/05 00:33:16;;;;;;;;;;;;;;;26.72;59.92;101241.34;5016306;28;19917;-83
2022/08/05 00:35:42;;;;;;;;;;;;;;;26.73;59.85;101236.88;5015596;28;19917;-83
2022/08/05 00:38:07;;;;;;;;;;;;;;;26.71;59.56;101234.22;5017397;28;19917;-84
2022/08/05 00:40:33;;;;;;;;;;;;;;;26.72;59.64;101235.13;5033271;28;20341;-85
2022/08/05 00:42:59;;;;;;;;;;;;;;;26.70;59.90;101231.56;5032379;28;20034;-84
2022/08/05 00:45:24;;;;;;;;;;;;;;;26.71;59.49;101236.91;4987357;28;20446;-83
2022/08/05 00:47:50;;;;;;;;;;;;;;;26.70;59.91;101228.88;5029293;28;20016;-84
2022/08/05 00:50:15;;;;;;;;;;;;;;;26.73;59.76;101229.75;5032471;28;19923;-83
2022/08/05 00:52:41;;;;;;;;;;;;;;;26.69;59.64;101219.03;5000482;28;19922;-84
2022/08/05 00:55:06;;;;;;;;;;;;;;;26.71;59.76;101227.97;5025380;28;19917;-85
2022/08/05 00:57:32;;;;;;;;;;;;;;;26.68;59.57;101230.66;5024946;28;20353;-84
2022/08/05 00:59:57;;;;;;;;;;;;;;;26.72;59.35;101229.75;5013999;28;20011;-85
2022/08/05 01:02:23;;;;;;;;;;;;;;;26.68;59.35;101228.00;5032151;28;20378;-84
2022/08/05 01:04:48;;;;;;;;;;;;;;;26.66;59.43;101228.00;5031667;28;19932;-85
2022/08/05 01:07:14;;;;;;;;;;;;;;;26.68;59.51;101225.31;5014253;28;19940;-85
2022/08/05 01:09:40;;;;;;;;;;;;;;;26.67;59.78;101227.09;4997741;28;20306;-85
2022/08/05 01:12:07;;;;;;;;;;;;;;;26.68;59.50;101217.28;5001201;28;19933;-84
2022/08/05 01:14:34;;;;;;;;;;;;;;;26.65;59.33;101215.50;5014425;28;19921;-86
2022/08/05 01:17:06;;;;;;;;;;;;;;;26.68;59.38;101214.59;5013784;28;20288;-85
2022/08/05 01:19:32;;;;;;;;;;;;;;;26.66;59.36;101214.59;5024326;28;20024;-85
2022/08/05 01:22:17;;;;;;;;;;;;;;;26.65;59.34;101215.50;5024717;28;19925;-84
2022/08/05 01:24:49;;;;;;;;;;;;;;;26.65;59.72;101214.59;5031208;28;20370;-84
2022/08/05 01:27:23;;;;;;;;;;;;;;;26.65;59.75;101207.47;5017214;28;20402;-83
2022/08/05 01:29:49;;;;;;;;;;;;;;;26.66;59.60;101206.56;5031233;28;20386;-85
2022/08/05 01:32:15;;;;;;;;;;;;;;;26.68;59.57;101209.25;5016230;28;20000;-84
2022/08/05 01:34:53;;;;;;;;;;;;;;;26.64;59.71;101210.16;5004888;28;19925;-85
2022/08/05 01:37:42;;;;;;;;;;;;;;;26.63;59.59;101206.59;5017171;28;20448;-85
2022/08/05 01:40:08;;;;;;;;;;;;;;;26.64;59.46;101200.31;5022300;28;20394;-85
2022/08/05 01:42:33;;;;;;;;;;;;;;;26.65;59.39;101207.47;5013573;28;19920;-85
2022/08/05 01:44:59;;;;;;;;;;;;;;;26.64;59.64;101207.47;4981805;28;19960;-85
2022/08/05 01:47:25;;;;;;;;;;;;;;;26.64;59.74;101200.31;5001456;28;19950;-86
2022/08/05 01:49:51;;;;;;;;;;;;;;;26.63;59.46;101200.31;5022833;28;20016;-86
2022/08/05 01:52:17;;;;;;;;;;;;;;;26.59;59.76;101197.66;5017511;28;19968;-87
2022/08/05 01:54:44;;;;;;;;;;;;;;;26.60;59.76;101209.25;5017647;28;20295;-87
2022/08/05 01:57:09;;;;;;;;;;;;;;;26.60;59.68;101204.78;5000610;28;19923;-86
2022/08/05 01:59:37;;;;;;;;;;;;;;;26.60;59.74;101207.47;4990547;28;20183;-84
2022/08/05 02:02:03;;;;;;;;;;;;;;;26.61;59.73;101203.03;5030898;28;19924;-84
2022/08/05 02:04:28;;;;;;;;;;;;;;;26.59;59.66;101204.81;5017287;28;20307;-85
2022/08/05 02:06:54;;;;;;;;;;;;;;;26.60;59.36;101204.78;5016783;28;20310;-85
2022/08/05 02:09:20;;;;;;;;;;;;;;;26.60;59.44;101204.78;5012539;28;19921;-85
2022/08/05 02:12:02;;;;;;;;;;;;;;;26.59;59.35;101199.47;5017012;28;20386;-87
2022/08/05 02:14:29;;;;;;;;;;;;;;;26.56;59.67;101200.38;5012235;28;19925;-85
2022/08/05 02:16:55;;;;;;;;;;;;;;;26.57;59.59;101204.81;4988597;28;19985;-86
2022/08/05 02:19:26;;;;;;;;;;;;;;;26.59;59.49;101205.72;5014957;28;20007;-86
2022/08/05 02:22:12;;;;;;;;;;;;;;;26.57;59.53;101202.16;5034539;28;20609;-86
2022/08/05 02:24:38;;;;;;;;;;;;;;;26.57;59.30;101203.94;5015588;28;19963;-85
2022/08/05 02:27:04;;;;;;;;;;;;;;;26.54;59.40;101201.22;5016949;28;19982;-85
2022/08/05 02:29:29;;;;;;;;;;;;;;;26.57;59.40;101206.63;5016937;28;19924;-85
2022/08/05 02:31:58;;;;;;;;;;;;;;;26.55;59.16;101203.91;5016601;28;20383;-86
2022/08/05 02:34:24;;;;;;;;;;;;;;;26.54;59.16;101198.53;5016354;28;19917;-86
2022/08/05 02:36:50;;;;;;;;;;;;;;;26.54;59.41;101198.53;5016805;28;20383;-85
2022/08/05 02:39:19;;;;;;;;;;;;;;;26.53;59.30;101199.47;4999650;28;20383;-84
2022/08/05 02:41:46;;;;;;;;;;;;;;;26.53;59.34;101194.09;5009630;28;20016;-85
2022/08/05 02:44:12;;;;;;;;;;;;;;;26.54;59.50;101187.84;5005878;28;19926;-84
2022/08/05 02:46:38;;;;;;;;;;;;;;;26.53;59.14;101197.66;5015661;28;19921;-86
2022/08/05 02:49:04;;;;;;;;;;;;;;;26.54;59.19;101201.22;5016608;28;20028;-86
2022/08/05 02:51:29;;;;;;;;;;;;;;;26.53;59.55;101199.47;5002310;28;19921;-86
2022/08/05 02:53:54;;;;;;;;;;;;;;;26.49;59.42;101203.94;5016775;28;19917;-86
2022/08/05 02:56:20;;;;;;;;;;;;;;;26.49;59.28;101208.41;5034289;28;19921;-86
2022/08/05 02:58:45;;;;;;;;;;;;;;;26.51;59.43;101209.28;5015806;28;19917;-86
2022/08/05 03:01:12;;;;;;;;;;;;;;;26.51;59.48;101204.81;5016332;28;19917;-86
2022/08/05 03:03:38;;;;;;;;;;;;;;;26.50;59.51;101204.81;5015835;28;19967;-86
2022/08/05 03:06:04;;;;;;;;;;;;;;;26.49;59.21;101195.00;5000155;28;19964;-86
2022/08/05 03:08:29;;;;;;;;;;;;;;;26.50;59.35;101200.38;5002623;28;19921;-86
2022/08/05 03:10:55;;;;;;;;;;;;;;;26.48;59.41;101199.50;5016390;28;19917;-86
2022/08/05 03:13:20;;;;;;;;;;;;;;;26.48;59.38;101204.84;5015757;28;20414;-86
2022/08/05 03:15:46;;;;;;;;;;;;;;;26.48;59.29;101206.59;5015862;28;19917;-86
2022/08/05 03:18:12;;;;;;;;;;;;;;;26.46;59.42;101211.06;4999327;28;20008;-86
2022/08/05 03:20:37;;;;;;;;;;;;;;;26.48;59.36;101207.53;5033745;28;19917;-86
2022/08/05 03:23:07;;;;;;;;;;;;;;;26.47;59.41;101200.38;5016047;28;19913;-85
2022/08/05 03:25:33;;;;;;;;;;;;;;;26.51;59.06;101207.50;5015443;28;19928;-85
2022/08/05 03:27:59;;;;;;;;;;;;;;;26.49;59.40;101208.41;5015628;28;19921;-85
2022/08/05 03:30:25;;;;;;;;;;;;;;;26.47;59.01;101197.69;5015275;28;19971;-86
2022/08/05 03:32:51;;;;;;;;;;;;;;;26.46;59.27;101198.59;5033314;28;19924;-84
2022/08/05 03:35:16;;;;;;;;;;;;;;;26.46;59.37;101203.03;5015387;28;19917;-85
2022/08/05 03:37:42;;;;;;;;;;;;;;;26.46;59.24;101208.41;5015607;28;19970;-86
2022/08/05 03:40:08;;;;;;;;;;;;;;;26.41;59.53;101203.06;5015979;28;19917;-86
2022/08/05 03:42:34;;;;;;;;;;;;;;;26.45;59.25;101202.16;5015223;28;19971;-84
2022/08/05 03:44:59;;;;;;;;;;;;;;;26.47;59.06;101203.06;5015274;28;19977;-84
2022/08/05 03:47:25;;;;;;;;;;;;;;;26.46;59.20;101197.69;5010033;28;19925;-86
2022/08/05 03:49:50;;;;;;;;;;;;;;;26.45;59.28;101202.16;5005818;28;19964;-86
2022/08/05 03:52:21;;;;;;;;;;;;;;;26.43;59.48;101203.06;4981238;28;19918;-86
2022/08/05 03:54:47;;;;;;;;;;;;;;;26.40;59.14;101202.19;4982335;28;19929;-86
2022/08/05 03:57:12;;;;;;;;;;;;;;;26.44;59.51;101196.81;4995638;28;19918;-86
2022/08/05 03:59:41;;;;;;;;;;;;;;;26.44;59.33;101200.41;4995573;28;20003;-87
2022/08/05 04:02:07;;;;;;;;;;;;;;;26.45;59.43;101204.84;4965922;28;20388;-86
2022/08/05 04:04:32;;;;;;;;;;;;;;;26.41;59.23;101203.06;4995319;28;20008;-87
2022/08/05 04:06:58;;;;;;;;;;;;;;;26.37;59.30;101199.53;4988929;28;20292;-86
2022/08/05 04:09:23;;;;;;;;;;;;;;;26.39;59.62;101196.84;4994387;28;20440;-85
2022/08/05 04:11:49;;;;;;;;;;;;;;;26.38;59.30;101203.97;5009605;28;19923;-86
2022/08/05 04:14:14;;;;;;;;;;;;;;;26.39;59.52;101202.19;4999536;28;19929;-86
2022/08/05 04:16:40;;;;;;;;;;;;;;;26.39;59.65;101204.88;4968935;28;20410;-87
2022/08/05 04:19:05;;;;;;;;;;;;;;;26.36;59.63;101195.06;4997764;28;20383;-86
2022/08/05 04:21:31;;;;;;;;;;;;;;;26.36;59.63;101196.84;4989874;28;19918;-87
2022/08/05 04:23:59;;;;;;;;;;;;;;;26.38;59.51;101200.44;5000326;28;20292;-86
2022/08/05 04:26:24;;;;;;;;;;;;;;;26.37;59.48;101199.53;5022479;28;19918;-86
2022/08/05 04:28:50;;;;;;;;;;;;;;;26.35;59.42;101197.75;5020871;28;19976;-86
2022/08/05 04:31:15;;;;;;;;;;;;;;;26.38;59.40;101203.09;5007063;28;19918;-87
2022/08/05 04:33:41;;;;;;;;;;;;;;;26.35;59.72;101203.09;5021134;28;19932;-89
2022/08/05 04:36:08;;;;;;;;;;;;;;;26.35;59.44;101208.44;5026200;28;20375;-89
2022/08/05 04:38:34;;;;;;;;;;;;;;;26.35;59.69;101209.38;5010663;28;20413;-88
2022/08/05 04:41:00;;;;;;;;;;;;;;;26.32;59.83;101212.03;5002919;28;20310;-86
2022/08/05 04:43:25;;;;;;;;;;;;;;;26.35;59.42;101205.78;5005153;28;20394;-85
2022/08/05 04:45:51;;;;;;;;;;;;;;;26.34;59.50;101199.53;4986800;28;20299;-87
2022/08/05 04:48:16;;;;;;;;;;;;;;;26.33;59.49;101202.22;4992870;28;19917;-86
2022/08/05 04:50:43;;;;;;;;;;;;;;;26.32;59.85;101200.44;5000994;28;19984;-86
2022/08/05 04:53:08;;;;;;;;;;;;;;;26.35;59.65;101204.00;4974163;28;19913;-84
2022/08/05 04:55:34;;;;;;;;;;;;;;;26.32;59.92;101203.13;5002313;28;19991;-85
2022/08/05 04:58:00;;;;;;;;;;;;;;;26.33;59.66;101195.09;5000649;28;19917;-85
2022/08/05 05:00:25;;;;;;;;;;;;;;;26.31;59.72;101193.28;4999742;28;20450;-85
2022/08/05 05:02:51;;;;;;;;;;;;;;;26.33;59.80;101196.84;5003283;28;19921;-86
2022/08/05 05:05:19;;;;;;;;;;;;;;;26.32;60.05;101195.09;4996722;28;19940;-90
2022/08/05 05:07:46;;;;;;;;;;;;;;;26.30;59.83;101195.09;5002688;28;20400;-89
2022/08/05 05:10:11;;;;;;;;;;;;;;;26.32;59.74;101198.66;5015982;28;19917;-90
2022/08/05 05:12:38;;;;;;;;;;;;;;;26.31;59.74;101199.56;5002770;28;19966;-88
2022/08/05 05:15:04;;;;;;;;;;;;;;;26.31;59.61;101191.53;5015929;28;19917;-86
2022/08/05 05:17:35;;;;;;;;;;;;;;;26.25;59.87;101198.69;5025552;28;19917;-89
2022/08/05 05:20:04;;;;;;;;;;;;;;;26.27;59.96;101194.19;5001113;28;19917;-90
2022/08/05 05:22:33;;;;;;;;;;;;;;;26.26;60.21;101193.31;5017954;28;20307;-89
2022/08/05 05:24:58;;;;;;;;;;;;;;;26.29;59.72;101197.75;5035751;28;19923;-87
2022/08/05 05:27:24;;;;;;;;;;;;;;;26.26;59.67;101196.00;5030743;28;20004;-85
2022/08/05 05:29:49;;;;;;;;;;;;;;;26.26;60.08;101189.75;5018179;28;20003;-85
2022/08/05 05:32:15;;;;;;;;;;;;;;;26.26;59.84;101197.78;5030328;28;19913;-86
2022/08/05 05:34:40;;;;;;;;;;;;;;;26.20;59.61;101185.31;4992439;28;20329;-85
2022/08/05 05:37:06;;;;;;;;;;;;;;;26.10;59.85;101186.22;5011540;28;19921;-86
2022/08/05 05:39:31;;;;;;;;;;;;;;;26.19;59.60;101188.91;5002289;28;20319;-86
2022/08/05 05:41:56;;;;;;;;;;;;;;;26.20;59.72;101194.25;5000489;28;20378;-86
2022/08/05 05:44:22;;;;;;;;;;;;;;;26.19;59.19;101184.44;5007316;28;19936;-86
2022/08/05 05:46:47;;;;;;;;;;;;;;;26.20;59.31;101188.91;5038030;28;20373;-87
2022/08/05 05:49:13;;;;;;;;;;;;;;;26.23;59.31;101188.00;5011102;28;19956;-86
2022/08/05 05:51:38;;;;;;;;;;;;;;;26.25;59.22;101196.91;5020338;28;19925;-85
2022/08/05 05:54:04;;;;;;;;;;;;;;;26.25;59.41;101190.66;5038079;28;20371;-86
2022/08/05 05:56:29;;;;;;;;;;;;;;;26.29;59.01;101192.41;5017954;28;20426;-85
2022/08/05 05:58:55;;;;;;;;;;;;;;;26.29;59.10;101196.00;5017983;28;19917;-85
2022/08/05 06:01:22;;;;;;;;;;;;;;;26.24;59.42;101191.56;5019161;28;19917;-86
2022/08/05 06:03:47;;;;;;;;;;;;;;;26.26;59.13;101195.13;5018364;28;19917;-88
2022/08/05 06:06:13;;;;;;;;;;;;;;;26.28;59.33;101198.69;5002120;28;19928;-88
2022/08/05 06:08:38;;;;;;;;;;;;;;;26.19;59.28;101196.94;5015590;28;20426;-88
2022/08/05 06:11:03;;;;;;;;;;;;;;;26.23;59.43;101203.19;5021124;28;19917;-89
2022/08/05 06:13:30;;;;;;;;;;;;;;;26.22;59.51;101198.69;5038720;28;19917;-88
2022/08/05 06:15:55;;;;;;;;;;;;;;;26.20;59.40;101201.38;5021467;28;19998;-89
2022/08/05 06:18:22;;;;;;;;;;;;;;;26.20;59.42;101204.97;5018317;28;19956;-89
2022/08/05 06:20:48;;;;;;;;;;;;;;;26.19;59.63;101207.63;5018832;28;19917;-88
2022/08/05 06:23:14;;;;;;;;;;;;;;;26.20;59.88;101209.41;5017091;28;19913;-87
2022/08/05 06:25:40;;;;;;;;;;;;;;;26.23;59.56;101216.56;4989589;28;19948;-88
2022/08/05 06:28:06;;;;;;;;;;;;;;;26.20;59.72;101218.34;4995538;28;19920;-88
2022/08/05 06:30:31;;;;;;;;;;;;;;;26.19;59.65;101221.03;5016920;28;19917;-87
2022/08/05 06:32:56;;;;;;;;;;;;;;;26.19;59.50;101219.22;5017280;28;19921;-86
2022/08/05 06:35:23;;;;;;;;;;;;;;;26.23;59.42;101225.47;5019460;28;20317;-87
2022/08/05 06:37:48;;;;;;;;;;;;;;;26.20;59.62;101221.03;5018232;28;19917;-86
2022/08/05 06:40:14;;;;;;;;;;;;;;;26.15;59.83;101220.13;5019390;28;19917;-86
2022/08/05 06:42:40;;;;;;;;;;;;;;;26.20;59.64;101230.81;5000745;28;19925;-85
2022/08/05 06:45:07;;;;;;;;;;;;;;;26.25;59.66;101231.72;4999951;28;19971;-86
2022/08/05 06:47:32;;;;;;;;;;;;;;;26.23;59.40;101224.59;5015144;28;19939;-85
2022/08/05 06:49:58;;;;;;;;;;;;;;;26.28;59.29;101222.78;4996497;28;20450;-86
2022/08/05 06:52:23;;;;;;;;;;;;;;;26.29;59.71;101235.25;4996937;28;19949;-85
2022/08/05 06:54:48;;;;;;;;;;;;;;;26.31;59.25;101234.38;5001158;28;20005;-87
2022/08/05 06:57:15;;;;;;;;;;;;;;;26.32;59.59;101227.22;4994110;28;19955;-86
2022/08/05 06:59:40;;;;;;;;;;;;;;;26.22;60.05;101231.72;5005584;28;20468;-85
2022/08/05 07:02:06;;;;;;;;;;;;;;;26.22;60.17;101241.53;5011547;28;20024;-84
2022/08/05 07:04:31;;;;;;;;;;;;;;;26.20;59.98;101237.09;5011804;28;20262;-85
2022/08/05 07:06:57;;;;;;;;;;;;;;;26.22;59.94;101234.38;5004768;28;19927;-86
2022/08/05 07:09:22;;;;;;;;;;;;;;;26.22;59.98;101244.22;4993916;28;19921;-85
2022/08/05 07:11:48;;;;;;;;;;;;;;;26.28;59.90;101242.41;5006568;28;19921;-84
2022/08/05 07:16:59;;;;;;;;;;;;;;;26.23;60.01;101238.84;5012422;28;20059;-85
2022/08/05 07:19:26;;;;;;;;;;;;;;;26.17;60.24;101239.75;5010970;28;19932;-86
2022/08/05 07:21:51;;;;;;;;;;;;;;;26.22;60.38;101244.22;5012743;28;19918;-84
2022/08/05 07:24:17;;;;;;;;;;;;;;;26.19;60.27;101247.78;5011480;28;19921;-86
2022/08/05 07:26:44;;;;;;;;;;;;;;;26.20;60.27;101244.22;5013538;28;19925;-84
2022/08/05 07:29:09;;;;;;;;;;;;;;;26.22;60.67;101242.41;5011372;28;19921;-87
2022/08/05 07:31:35;;;;;;;;;;;;;;;26.26;60.35;101235.28;5007736;28;19921;-84
2022/08/05 07:34:01;;;;;;;;;;;;;;;26.34;59.74;101237.03;5013096;28;20403;-85
2022/08/05 07:36:41;;;;;;;;;;;;;;;26.25;60.46;101246.91;5004338;28;19921;-85
2022/08/05 07:39:07;;;;;;;;;;;;;;;26.24;60.47;101248.66;5005259;28;19927;-84
2022/08/05 07:41:46;;;;;;;;;;;;;;;26.31;60.03;101247.75;5008137;28;20024;-87
2022/08/05 07:44:12;;;;;;;;;;;;;;;26.31;60.45;101238.81;5007321;28;19923;-85
2022/08/05 07:46:37;;;;;;;;;;;;;;;26.26;60.47;101235.28;5011315;28;19921;-85
2022/08/05 07:49:03;;;;;;;;;;;;;;;26.30;60.00;101237.94;5003920;28;19984;-85
2022/08/05 07:51:29;;;;;;;;;;;;;;;26.27;60.02;101237.97;5009404;28;19925;-84
2022/08/05 07:53:54;;;;;;;;;;;;;;;26.31;60.10;101225.41;5010881;28;20391;-85
2022/08/05 07:56:20;;;;;;;;;;;;;;;26.32;60.07;101229.91;5010566;28;19921;-85
2022/08/05 07:58:45;;;;;;;;;;;;;;;26.41;59.44;101235.22;5011213;28;19918;-85
2022/08/05 08:01:10;;;;;;;;;;;;;;;26.31;60.04;101229.03;5001906;28;19928;-83
2022/08/05 08:03:37;;;;;;;;;;;;;;;26.32;59.93;101222.75;5012793;28;20327;-85
2022/08/05 08:06:06;;;;;;;;;;;;;;;26.39;60.06;101231.66;5012847;28;19917;-85
2022/08/05 08:08:31;;;;;;;;;;;;;;;26.44;59.66;101237.91;4992772;28;19990;-85
2022/08/05 08:10:57;;;;;;;;;;;;;;;26.40;59.93;101239.69;5011503;28;19917;-85
2022/08/05 08:13:22;;;;;;;;;;;;;;;26.38;59.69;101243.28;5009400;28;19921;-84
2022/08/05 08:15:48;;;;;;;;;;;;;;;26.40;59.67;101237.00;5012508;28;19926;-86
2022/08/05 08:18:13;;;;;;;;;;;;;;;26.44;59.70;101232.53;5010662;28;19918;-84
2022/08/05 08:20:38;;;;;;;;;;;;;;;26.51;59.69;101236.06;5011299;28;19957;-84
2022/08/05 08:23:06;;;;;;;;;;;;;;;26.42;59.86;101234.31;5012760;28;19936;-85
2022/08/05 08:25:34;;;;;;;;;;;;;;;26.42;59.83;101237.00;5012277;28;19918;-84
2022/08/05 08:28:00;;;;;;;;;;;;;;;26.48;59.76;101236.97;5011488;28;19983;-84
2022/08/05 08:30:25;;;;;;;;;;;;;;;26.51;59.80;101236.97;5011927;28;19945;-84
2022/08/05 08:32:52;;;;;;;;;;;;;;;26.51;59.63;101230.72;5011062;28;19985;-84
2022/08/05 08:35:18;;;;;;;;;;;;;;;26.60;59.71;101234.25;4991385;28;19914;-85
2022/08/05 08:37:43;;;;;;;;;;;;;;;26.58;59.48;101235.16;5009864;28;20015;-84
2022/08/05 08:40:11;;;;;;;;;;;;;;;26.58;59.59;101229.81;5008554;28;19917;-84
2022/08/05 08:42:40;;;;;;;;;;;;;;;26.64;59.32;101232.47;5011163;28;20418;-84
2022/08/05 08:45:05;;;;;;;;;;;;;;;26.62;59.28;101218.19;4988043;28;20381;-83
2022/08/05 08:47:40;;;;;;;;;;;;;;;26.64;59.13;101221.75;4992263;28;20012;-82
2022/08/05 08:50:08;;;;;;;;;;;;;;;26.61;59.54;101211.06;5005397;28;19918;-83
2022/08/05 08:52:34;;;;;;;;;;;;;;;26.60;59.64;101207.47;5025607;28;19917;-84
2022/08/05 08:55:03;;;;;;;;;;;;;;;26.63;59.63;101194.97;4993973;28;20306;-85
2022/08/05 08:57:28;;;;;;;;;;;;;;;26.63;59.60;101192.28;5013289;28;20394;-84
2022/08/05 08:59:53;;;;;;;;;;;;;;;26.60;59.42;101204.78;5030859;28;20016;-84
2022/08/05 09:02:21;;;;;;;;;;;;;;;26.57;59.85;101204.81;5030816;28;19917;-85
2022/08/05 09:04:47;;;;;;;;;;;;;;;26.67;59.57;101196.72;4985486;28;19921;-87
2022/08/05 09:07:13;;;;;;;;;;;;;;;26.60;59.85;101199.44;4996277;28;19917;-86
2022/08/05 09:09:41;;;;;;;;;;;;;;;26.64;59.68;101207.47;4996580;28;20319;-84
2022/08/05 09:12:11;;;;;;;;;;;;;;;26.63;59.71;101195.88;5004365;28;19921;-87
2022/08/05 09:14:37;;;;;;;;;;;;;;;26.66;59.89;101193.16;4997695;28;19917;-84
2022/08/05 09:17:06;;;;;;;;;;;;;;;26.66;59.70;101190.47;4997093;28;20268;-84
2022/08/05 09:19:32;;;;;;;;;;;;;;;26.63;59.70;101184.25;5007904;28;19921;-84
2022/08/05 09:21:57;;;;;;;;;;;;;;;26.68;59.91;101182.44;5009883;28;19925;-84
2022/08/05 09:24:23;;;;;;;;;;;;;;;26.66;60.28;101181.56;5029527;28;19932;-84
2022/08/05 09:26:49;;;;;;;;;;;;;;;26.70;59.97;101180.66;5011894;28;19921;-84
2022/08/05 09:29:14;;;;;;;;;;;;;;;26.64;60.46;101178.88;5011146;28;19925;-84
2022/08/05 09:31:42;;;;;;;;;;;;;;;26.68;60.46;101179.75;4991473;28;20493;-83
2022/08/05 09:34:08;;;;;;;;;;;;;;;26.67;60.26;101176.22;4993176;28;19921;-85
2022/08/05 09:36:40;;;;;;;;;;;;;;;26.60;60.62;101180.69;5000701;28;19922;-85
2022/08/05 09:39:06;;;;;;;;;;;;;;;26.62;60.62;101174.44;5004843;28;19944;-87
2022/08/05 09:41:32;;;;;;;;;;;;;;;26.62;60.43;101169.09;5001322;28;19936;-85
2022/08/05 09:44:01;;;;;;;;;;;;;;;26.62;60.85;101175.31;4992056;28;19917;-84
2022/08/05 09:46:27;;;;;;;;;;;;;;;26.69;61.05;101170.81;5009303;28;20366;-83
2022/08/05 09:48:53;;;;;;;;;;;;;;;26.66;61.02;101163.69;4993599;28;19918;-84
2022/08/05 09:51:34;;;;;;;;;;;;;;;26.72;60.44;101174.38;4996524;28;19918;-83
2022/08/05 09:54:00;;;;;;;;;;;;;;;26.72;60.48;101163.66;5013930;28;20358;-83
2022/08/05 09:56:26;;;;;;;;;;;;;;;26.69;60.45;101162.78;4984325;28;19922;-83
2022/08/05 09:58:58;;;;;;;;;;;;;;;26.74;60.52;101169.00;4997097;28;19948;-83
2022/08/05 10:01:24;;;;;;;;;;;;;;;26.70;60.85;101167.25;5007755;28;19973;-85
2022/08/05 10:03:58;;;;;;;;;;;;;;;26.75;60.42;101160.94;5013800;28;19968;-83
2022/08/05 10:06:24;;;;;;;;;;;;;;;26.75;60.42;101168.09;5009743;28;19934;-83
2022/08/05 10:08:49;;;;;;;;;;;;;;;26.75;60.76;101165.41;4990006;28;19980;-84
2022/08/05 10:11:16;;;;;;;;;;;;;;;26.78;60.43;101160.94;5010792;28;19921;-83
2022/08/05 10:13:42;;;;;;;;;;;;;;;26.76;60.77;101161.84;5010087;28;19921;-83
2022/08/05 10:16:26;;;;;;;;;;;;;;;26.76;60.58;101161.84;4998979;28;19937;-82
2022/08/05 10:18:52;;;;;;;;;;;;;;;26.76;60.73;101162.75;4987342;28;19999;-79
2022/08/05 10:21:18;;;;;;;;;;;;;;;26.81;60.39;101158.22;5010169;28;19926;-83
2022/08/05 10:23:43;;;;;;;;;;;;;;;26.80;60.47;101158.25;5009519;28;20429;-82
2022/08/05 10:26:11;;;;;;;;;;;;;;;26.80;60.60;101160.94;4991468;28;19921;-83
2022/08/05 10:28:37;;;;;;;;;;;;;;;26.80;60.97;101158.25;5005733;28;19922;-86
2022/08/05 10:31:05;;;;;;;;;;;;;;;26.81;60.56;101151.97;5007852;28;19971;-84
2022/08/05 10:33:32;;;;;;;;;;;;;;;26.83;60.65;101144.81;5009865;28;19928;-84
2022/08/05 10:36:02;;;;;;;;;;;;;;;26.77;60.83;101153.78;5006536;28;19973;-84
2022/08/05 10:38:43;;;;;;;;;;;;;;;26.83;60.70;101144.81;4991805;28;19921;-85
2022/08/05 10:41:35;;;;;;;;;;;;;;;26.84;60.89;101143.03;4992335;28;20395;-86
2022/08/05 10:44:12;;;;;;;;;;;;;;;26.85;60.86;101150.19;5008665;28;19922;-85
2022/08/05 10:46:47;;;;;;;;;;;;;;;26.88;60.98;101144.78;5002664;28;19922;-86
2022/08/05 10:49:35;;;;;;;;;;;;;;;26.85;61.15;101142.13;5000720;28;19929;-86
2022/08/05 10:52:06;;;;;;;;;;;;;;;26.88;60.78;101139.44;4999235;28;19928;-86
2022/08/05 10:54:57;;;;;;;;;;;;;;;26.85;60.89;101143.03;4990599;28;19925;-83
2022/08/05 10:57:28;;;;;;;;;;;;;;;26.80;60.91;101143.06;5008276;28;19987;-84
2022/08/05 11:00:06;;;;;;;;;;;;;;;26.84;60.28;101135.91;5004404;28;19957;-85
2022/08/05 11:02:32;;;;;;;;;;;;;;;26.84;60.38;101137.66;4999342;28;19952;-85
2022/08/05 11:04:58;;;;;;;;;;;;;;;26.79;60.33;101130.53;5010115;28;19921;-85
2022/08/05 11:07:23;;;;;;;;;;;;;;;26.80;60.63;101129.66;5008929;28;19968;-84
2022/08/05 11:09:53;;;;;;;;;;;;;;;26.82;60.70;101129.66;5005959;28;19980;-84
2022/08/05 11:12:37;;;;;;;;;;;;;;;26.80;61.00;101126.97;5008620;28;19929;-85
2022/08/05 11:15:06;;;;;;;;;;;;;;;26.77;60.87;101121.63;5008500;28;20382;-85
2022/08/05 11:17:37;;;;;;;;;;;;;;;26.82;60.70;101121.63;5001917;28;19922;-85
2022/08/05 11:20:24;;;;;;;;;;;;;;;26.83;60.65;101120.72;4984052;28;19968;-85
2022/08/05 11:22:51;;;;;;;;;;;;;;;26.84;60.57;101118.91;5004028;28;19989;-84
2022/08/05 11:25:28;;;;;;;;;;;;;;;26.88;60.35;101109.94;5012361;28;19966;-84
2022/08/05 11:28:10;;;;;;;;;;;;;;;26.84;60.62;101105.50;5002822;28;19976;-85
2022/08/05 11:31:10;;;;;;;;;;;;;;;26.88;60.06;101121.59;5009001;28;19949;-85
2022/08/05 11:33:52;;;;;;;;;;;;;;;26.86;60.55;101118.03;4915637;29;19942;-85
2022/08/05 11:36:48;;;;;;;;;;;;;;;26.86;60.65;101109.06;4916591;29;19919;-86
2022/08/05 11:39:36;;;;;;;;;;;;;;;26.84;60.71;101106.44;4930038;29;19923;-84
2022/08/05 11:42:03;;;;;;;;;;;;;;;26.85;60.23;101108.19;4977685;28;19922;-83
2022/08/05 11:47:30;;;;;;;;;;;;;;;26.90;60.55;101111.75;4994804;28;19944;-86
2022/08/05 11:50:02;;;;;;;;;;;;;;;26.88;60.47;101109.94;4991832;28;19918;-84
2022/08/05 11:52:27;;;;;;;;;;;;;;;26.92;60.33;101109.03;5000119;28;19917;-83
2022/08/05 11:55:16;;;;;;;;;;;;;;;26.92;60.27;101103.66;4994687;28;19926;-85
2022/08/05 11:57:47;;;;;;;;;;;;;;;26.85;60.78;101116.22;5006249;28;19924;-85
2022/08/05 12:00:42;;;;;;;;;;;;;;;;;;;;;
2022/08/05 12:03:20;;;;;;;;;;;;;;;26.92;60.31;101109.91;5002319;28;19917;-84
2022/08/05 12:05:52;;;;;;;;;;;;;;;26.91;60.74;101101.91;5006353;28;20038;-86
2022/08/05 12:08:27;;;;;;;;;;;;;;;26.92;60.56;101103.66;5007690;28;20543;-83
2022/08/05 12:11:00;;;;;;;;;;;;;;;26.98;60.41;101101.81;4989319;28;20306;-84
2022/08/05 12:13:29;;;;;;;;;;;;;;;26.97;60.64;101100.06;4985491;28;19925;-83
2022/08/05 12:15:55;;;;;;;;;;;;;;;26.93;61.12;101114.38;4992470;28;19936;-86
2022/08/05 12:18:28;;;;;;;;;;;;;;;26.96;60.83;101100.06;5011325;28;20392;-85
2022/08/05 12:20:54;;;;;;;;;;;;;;;27.01;60.42;101109.84;4993504;28;19925;-86
2022/08/05 12:23:20;;;;;;;;;;;;;;;27.01;60.34;101098.25;5009556;28;20362;-86
2022/08/05 12:25:56;;;;;;;;;;;;;;;27.04;60.40;101114.28;5007156;28;19921;-87
2022/08/05 12:28:37;;;;;;;;;;;;;;;27.02;60.73;101108.03;5004597;28;19955;-84
2022/08/05 12:31:06;;;;;;;;;;;;;;;26.97;61.05;101101.84;5011131;28;20334;-85
2022/08/05 12:33:35;;;;;;;;;;;;;;;26.95;61.95;101115.25;4994361;28;19917;-87
2022/08/05 12:36:00;;;;;;;;;;;;;;;26.98;61.09;101108.97;5005735;28;19917;-86
2022/08/05 12:38:26;;;;;;;;;;;;;;;26.96;61.61;101103.63;5011893;28;19919;-85
2022/08/05 12:40:52;;;;;;;;;;;;;;;26.96;61.35;101106.31;5002266;28;20483;-88
2022/08/05 12:43:20;;;;;;;;;;;;;;;26.99;61.07;101102.72;4983376;28;19960;-87
2022/08/05 12:45:52;;;;;;;;;;;;;;;27.01;61.12;101101.81;4990533;28;20407;-84
2022/08/05 12:48:18;;;;;;;;;;;;;;;26.99;61.40;101105.41;5008960;28;19923;-86